createdAt,value
2022-08-26T00:02:46.156Z,2148.8428093645484
2022-08-26T00:09:08.000Z,2227.3545150501673
2022-08-26T00:15:29.381Z,2188.6354515050166
2022-08-26T00:21:51.230Z,2270.5886287625417
2022-08-26T00:28:13.400Z,2308.6254180602004
2022-08-26T00:35:16.794Z,2368.3846153846152
2022-08-26T00:41:38.683Z,2312.9799331103677
2022-08-26T00:48:23.633Z,2341.505016722408
2022-08-26T00:54:45.049Z,2361.190635451505
2022-08-26T01:01:06.214Z,2401.705685618729
2022-08-26T01:07:27.638Z,2362.545150501672
2022-08-26T01:13:52.369Z,2375.3076923076924
2022-08-26T01:25:31.749Z,2362.484949832776
2022-08-26T01:34:35.006Z,2440.9866220735785
2022-08-26T01:47:13.538Z,2476.1939799331103
2022-08-26T01:53:35.871Z,2459.0066889632108
2022-08-26T02:02:15.854Z,2466.1103678929767
2022-08-26T02:12:00.174Z,2530.183946488294
2022-08-26T02:31:47.249Z,2478.913043478261
2022-08-26T02:43:39.618Z,2615.127090301003
2022-08-26T02:50:01.486Z,2598.541806020067
2022-08-26T02:56:22.862Z,2560.2842809364547
2022-08-26T03:07:10.930Z,2646.6220735785955
2022-08-26T03:19:06.556Z,2641.2040133779265
2022-08-26T03:25:37.474Z,2677.6755852842807
2022-08-26T03:34:29.055Z,2638.886287625418
2022-08-26T03:43:10.672Z,2626.494983277592
2022-08-26T03:53:37.323Z,2717.1471571906354
2022-08-26T04:01:46.978Z,2806.0234113712377
2022-08-26T04:08:09.262Z,2772.2709030100336
2022-08-26T04:14:31.327Z,2788.5652173913045
2022-08-26T04:28:55.125Z,2724.6822742474915
2022-08-26T04:35:16.721Z,2770.90635451505
2022-08-26T04:47:16.950Z,2857.5551839464883
2022-08-26T04:53:51.922Z,2989.1939799331103
2022-08-26T05:00:13.112Z,2903.6989966555184
2022-08-26T05:06:37.053Z,3007.3645484949834
2022-08-26T05:12:58.237Z,3006.0903010033444
2022-08-26T05:24:17.991Z,3042.8428093645484
2022-08-26T05:54:57.587Z,3137.56856187291
2022-08-26T06:01:18.794Z,3102.8929765886287
2022-08-26T06:07:41.203Z,3175.695652173913
2022-08-26T06:14:03.918Z,3152.5083612040135
2022-08-26T06:20:27.913Z,3188.7190635451507
2022-08-26T06:30:05.735Z,3222.541806020067
2022-08-26T06:36:27.587Z,3137.61872909699
2022-08-26T06:42:49.617Z,3133.2541806020067
2022-08-26T06:49:11.678Z,3166.274247491639
2022-08-26T06:55:32.606Z,3124.103678929766
2022-08-26T07:02:22.296Z,3092.3779264214045
2022-08-26T07:08:43.642Z,3084.1304347826085
2022-08-26T07:15:04.906Z,3218.2274247491637
2022-08-26T07:27:20.316Z,3047.5284280936453
2022-08-26T07:33:46.096Z,2945.759197324415
2022-08-26T07:43:44.620Z,2926.42474916388
2022-08-26T07:50:12.340Z,2978.0267558528426
2022-08-26T08:04:58.510Z,3000.180602006689
2022-08-26T08:11:22.329Z,2885.8695652173915
2022-08-26T08:21:37.182Z,2765.7792642140466
2022-08-26T08:28:00.287Z,2736.521739130435
2022-08-26T08:34:24.990Z,2539.9163879598664
2022-08-26T08:40:46.698Z,2646.7324414715717
2022-08-26T08:47:08.581Z,2719.2040133779265
2022-08-26T08:55:35.281Z,2540.9297658862874
2022-08-26T09:01:57.482Z,2560.85618729097
2022-08-26T09:08:20.476Z,2510.9197324414718
2022-08-26T09:14:42.145Z,2433.8227424749166
2022-08-26T09:21:04.422Z,2429.1070234113713
2022-08-26T09:27:25.850Z,2546.879598662207
2022-08-26T09:33:47.746Z,2420.9297658862874
2022-08-26T09:43:57.026Z,2393.608695652174
2022-08-26T09:50:18.818Z,2183.066889632107
2022-08-26T09:56:39.945Z,2232.521739130435
2022-08-26T10:05:12.474Z,2313.160535117057
2022-08-26T10:11:33.712Z,2407.695652173913
2022-08-26T10:17:54.999Z,2378.5484949832776
2022-08-26T10:34:00.042Z,2344.655518394649
2022-08-26T10:40:25.024Z,2228.9297658862874
2022-08-26T10:46:57.640Z,2281.314381270903
2022-08-26T10:53:25.377Z,2262.8227424749166
2022-08-26T10:59:51.745Z,2329.4046822742475
2022-08-26T11:06:17.676Z,2348.5484949832776
2022-08-26T11:12:49.386Z,2467.494983277592
2022-08-26T11:20:30.305Z,2477.2976588628762
2022-08-26T11:29:26.507Z,2508.541806020067
2022-08-26T11:36:12.323Z,2411.7391304347825
2022-08-26T11:42:48.448Z,2548.535117056856
2022-08-26T11:52:41.095Z,2479.6755852842807
2022-08-26T11:59:05.767Z,2475.6220735785955
2022-08-26T12:08:38.062Z,2460.6020066889632
2022-08-26T12:15:02.234Z,2423.438127090301
2022-08-26T12:23:39.193Z,2548.85618729097
2022-08-26T12:35:56.668Z,2539.0133779264215
2022-08-26T12:42:20.326Z,2810.829431438127
2022-08-26T12:53:10.954Z,3249.6421404682274
2022-08-26T12:59:34.481Z,3418.816053511706
2022-08-26T13:05:57.335Z,3480.722408026756
2022-08-26T13:19:10.335Z,3248.3478260869565
2022-08-26T13:25:33.094Z,3053.1070234113713
2022-08-26T13:31:57.131Z,2935.7458193979933
2022-08-26T13:38:33.444Z,2943.2709030100336
2022-08-26T13:45:34.301Z,3433.6454849498327
2022-08-26T13:53:23.814Z,3531.040133779264
2022-08-26T14:00:54.565Z,3600.2909698996655
2022-08-26T14:07:21.861Z,3175.505016722408
2022-08-26T14:13:45.625Z,2000.1070234113713
2022-08-26T14:20:10.574Z,2047.6555183946489
2022-08-26T14:26:34.918Z,1799.1571906354516
2022-08-26T14:32:59.944Z,1615.9966555183946
2022-08-26T14:39:25.619Z,1714.1337792642141
2022-08-26T14:45:53.081Z,1875.9130434782608
2022-08-26T14:52:25.328Z,2452.14381270903
2022-08-26T14:58:49.615Z,3382.8260869565215
2022-08-26T15:08:38.299Z,3728.0066889632108
2022-08-26T15:26:52.719Z,3654.3311036789296
2022-08-26T15:33:15.605Z,3418.7458193979933
2022-08-26T15:39:39.708Z,3273.3110367892978
2022-08-26T15:46:02.268Z,3170.9498327759197
2022-08-26T15:52:25.302Z,3208.5953177257525
2022-08-26T15:58:48.649Z,3208.816053511706
2022-08-26T16:05:12.569Z,3181.866220735786
2022-08-26T16:11:37.485Z,3238.7458193979933
2022-08-26T16:18:01.817Z,3362.5484949832776
2022-08-26T16:30:03.296Z,3205.3645484949834
2022-08-26T16:36:26.533Z,3068.28762541806
2022-08-26T16:42:50.815Z,3053.9498327759197
2022-08-26T16:49:15.506Z,2681.6989966555184
2022-08-26T16:55:36.694Z,2600.127090301003
2022-08-26T17:03:50.789Z,1969.163879598662
2022-08-26T17:10:12.193Z,1640.3879598662206
2022-08-26T17:16:33.518Z,1636.7658862876253
2022-08-26T17:27:16.200Z,1482.3311036789298
2022-08-26T17:33:40.780Z,1265.3478260869565
2022-08-26T17:42:14.957Z,1218.3411371237457
2022-08-26T17:48:37.090Z,1098.4113712374583
2022-08-26T17:58:23.581Z,956.2173913043479
2022-08-26T18:08:35.581Z,999.8528428093646
2022-08-26T18:14:57.756Z,962.7591973244147
2022-08-26T18:27:02.776Z,955.4849498327759
2022-08-26T18:40:43.297Z,965.9096989966555
2022-08-26T18:48:15.820Z,854.7892976588629
2022-08-26T18:54:39.723Z,746.4882943143813
2022-08-26T19:01:03.824Z,821.2775919732442
2022-08-26T19:07:26.981Z,806.1672240802676
2022-08-26T19:15:31.892Z,822.3210702341137
2022-08-26T19:21:56.570Z,819.9431438127091
2022-08-26T19:28:30.203Z,819.551839464883
2022-08-26T19:34:53.381Z,824.0969899665552
2022-08-26T19:41:15.177Z,727.5150501672241
2022-08-26T19:47:38.238Z,732.7123745819398
2022-08-26T19:54:00.651Z,684.4916387959867
2022-08-26T20:00:23.169Z,703.4347826086956
2022-08-26T20:06:51.096Z,760.123745819398
2022-08-26T20:13:22.620Z,752.1772575250836
2022-08-26T20:19:47.143Z,677.4782608695652
2022-08-26T20:26:12.593Z,709.886287625418
2022-08-26T20:32:35.675Z,681.0401337792642
2022-08-26T20:42:37.322Z,671.4882943143813
2022-08-26T20:51:01.936Z,700.6755852842809
2022-08-26T20:57:24.343Z,708.2809364548496
2022-08-26T21:03:45.480Z,697.0334448160535
2022-08-26T21:10:06.850Z,702.742474916388
2022-08-26T21:16:28.220Z,736.314381270903
2022-08-26T21:22:50.172Z,747.7625418060201
2022-08-26T21:29:10.761Z,757.2040133779265
2022-08-26T21:35:31.747Z,736.0635451505017
2022-08-26T21:41:52.264Z,754.314381270903
2022-08-26T21:51:47.292Z,839.2876254180602
2022-08-26T21:58:07.735Z,808.4147157190636
2022-08-26T22:04:28.400Z,805.2742474916388
2022-08-26T22:10:49.712Z,832.9063545150501
2022-08-26T22:17:10.874Z,798.9832775919732
2022-08-26T22:23:31.838Z,780.7023411371238
2022-08-26T22:35:59.587Z,779.3578595317725
2022-08-26T22:42:21.214Z,724.1538461538462
2022-08-26T22:48:42.453Z,694.9464882943143
2022-08-26T22:55:03.456Z,623.9197324414715
2022-08-26T23:01:24.234Z,599.9498327759197
2022-08-26T23:07:45.674Z,605.7993311036789
2022-08-26T23:14:06.934Z,598.7859531772575
2022-08-26T23:30:04.683Z,539.7591973244147
2022-08-26T23:36:26.801Z,485.6488294314381
2022-08-26T23:42:47.953Z,549.0
2022-08-26T23:49:27.734Z,450.1404682274248
2022-08-26T23:55:48.812Z,445.2240802675585
